createdAt,value
2022-11-03T00:00:12.741Z,32.73
2022-11-03T00:01:53.404Z,32.74
2022-11-03T00:03:25.048Z,32.81
2022-11-03T00:04:56.559Z,32.70
2022-11-03T00:06:28.167Z,32.70
2022-11-03T00:08:01.742Z,32.68
2022-11-03T00:09:33.618Z,32.82
2022-11-03T00:11:09.489Z,33.04
2022-11-03T00:12:41.039Z,33.26
2022-11-03T00:14:13.003Z,33.41
2022-11-03T00:15:50.517Z,33.57
2022-11-03T00:17:22.103Z,33.57
2022-11-03T00:18:53.702Z,33.58
2022-11-03T00:20:25.391Z,33.66
2022-11-03T00:21:59.488Z,33.50
2022-11-03T00:23:33.787Z,33.72
2022-11-03T00:25:05.584Z,33.67
2022-11-03T00:26:37.683Z,33.81
2022-11-03T00:28:09.356Z,33.73
2022-11-03T00:29:41.018Z,33.74
2022-11-03T00:31:13.872Z,33.31
2022-11-03T00:32:45.533Z,33.55
2022-11-03T00:34:17.144Z,33.64
2022-11-03T00:35:48.678Z,33.36
2022-11-03T00:37:20.205Z,33.58
2022-11-03T00:38:51.860Z,33.71
2022-11-03T00:40:23.379Z,33.66
2022-11-03T00:41:55.008Z,33.32
2022-11-03T00:43:26.882Z,33.80
2022-11-03T00:44:58.489Z,33.56
2022-11-03T00:46:30.754Z,33.45
2022-11-03T00:48:21.081Z,33.59
2022-11-03T00:49:52.590Z,33.69
2022-11-03T00:51:24.986Z,33.81
2022-11-03T00:52:56.537Z,33.66
2022-11-03T00:54:28.048Z,34.29
2022-11-03T00:55:59.727Z,34.08
2022-11-03T00:57:31.219Z,33.81
2022-11-03T00:59:03.927Z,34.27
2022-11-03T01:00:35.463Z,33.98
2022-11-03T01:02:07.036Z,34.12
2022-11-03T01:03:39.294Z,33.88
2022-11-03T01:05:29.564Z,34.08
2022-11-03T01:07:01.250Z,34.16
2022-11-03T01:08:34.179Z,34.06
2022-11-03T01:10:07.637Z,34.25
2022-11-03T01:11:45.226Z,34.06
2022-11-03T01:13:16.711Z,34.02
2022-11-03T01:14:49.468Z,34.38
2022-11-03T01:16:21.170Z,34.24
2022-11-03T01:17:52.948Z,34.17
2022-11-03T01:19:25.452Z,34.33
2022-11-03T01:20:57.500Z,34.56
2022-11-03T01:22:29.132Z,34.57
2022-11-03T01:24:01.918Z,34.57
2022-11-03T01:25:35.468Z,34.28
2022-11-03T01:27:08.206Z,34.32
2022-11-03T01:28:40.670Z,34.70
2022-11-03T01:30:12.327Z,34.81
2022-11-03T01:31:43.972Z,34.52
2022-11-03T01:33:15.585Z,34.82
2022-11-03T01:34:47.590Z,34.66
2022-11-03T01:36:19.519Z,34.91
2022-11-03T01:37:51.504Z,35.10
2022-11-03T01:39:23.124Z,34.75
2022-11-03T01:40:54.707Z,34.65
2022-11-03T01:42:26.238Z,34.85
2022-11-03T01:44:09.758Z,34.78
2022-11-03T01:45:41.247Z,34.58
2022-11-03T01:47:19.644Z,34.96
2022-11-03T01:49:01.200Z,34.68
2022-11-03T01:50:32.734Z,34.61
2022-11-03T01:52:09.763Z,35.14
2022-11-03T01:53:42.920Z,34.90
2022-11-03T01:55:16.366Z,35.21
2022-11-03T01:56:48.002Z,34.71
2022-11-03T01:58:20.910Z,35.00
2022-11-03T01:59:52.437Z,35.22
2022-11-03T02:01:24.399Z,35.04
2022-11-03T02:02:56.138Z,35.15
2022-11-03T02:04:29.445Z,34.68
2022-11-03T02:06:01.560Z,35.00
2022-11-03T02:07:59.101Z,34.99
2022-11-03T02:09:30.757Z,34.84
2022-11-03T02:11:22.198Z,34.60
2022-11-03T02:12:54.036Z,34.83
2022-11-03T02:14:25.570Z,34.87
2022-11-03T02:15:58.169Z,35.10
2022-11-03T02:17:29.873Z,35.07
2022-11-03T02:19:01.867Z,35.03
2022-11-03T02:20:33.482Z,35.27
2022-11-03T02:22:14.404Z,35.26
2022-11-03T02:23:47.999Z,35.53
2022-11-03T02:25:34.519Z,35.27
2022-11-03T02:27:06.064Z,35.49
2022-11-03T02:28:37.560Z,35.59
2022-11-03T02:30:09.882Z,35.45
2022-11-03T02:31:42.485Z,35.52
2022-11-03T02:33:32.614Z,35.61
2022-11-03T02:35:33.604Z,35.59
2022-11-03T02:37:15.770Z,35.51
2022-11-03T02:38:54.034Z,35.49
2022-11-03T02:40:30.137Z,35.79
2022-11-03T02:42:01.719Z,35.46
2022-11-03T02:43:33.270Z,35.97
2022-11-03T02:45:05.808Z,35.93
2022-11-03T02:46:37.598Z,35.59
2022-11-03T02:48:09.152Z,35.73
2022-11-03T02:49:47.327Z,35.66
2022-11-03T02:51:18.923Z,35.86
2022-11-03T02:52:52.666Z,35.44
2022-11-03T02:54:26.761Z,35.62
2022-11-03T02:56:06.273Z,35.82
2022-11-03T02:57:39.583Z,35.88
2022-11-03T02:59:14.959Z,35.84
2022-11-03T03:00:58.737Z,35.85
2022-11-03T03:02:33.468Z,35.71
2022-11-03T03:04:06.662Z,36.01
2022-11-03T03:05:38.446Z,36.03
2022-11-03T03:07:26.908Z,36.25
2022-11-03T03:09:01.650Z,36.09
2022-11-03T03:10:34.894Z,36.23
2022-11-03T03:12:06.591Z,36.34
2022-11-03T03:13:38.176Z,36.38
2022-11-03T03:15:09.885Z,36.53
2022-11-03T03:16:47.352Z,36.35
2022-11-03T03:18:26.520Z,36.37
2022-11-03T03:20:02.102Z,36.39
2022-11-03T03:21:35.192Z,36.50
2022-11-03T03:23:19.643Z,36.62
2022-11-03T03:24:56.985Z,36.82
2022-11-03T03:26:29.857Z,36.78
2022-11-03T03:28:03.139Z,36.67
2022-11-03T03:29:39.519Z,36.77
2022-11-03T03:31:12.044Z,36.68
2022-11-03T03:32:44.919Z,36.81
2022-11-03T03:34:33.788Z,36.63
2022-11-03T03:36:06.842Z,36.88
2022-11-03T03:37:39.536Z,36.52
2022-11-03T03:39:11.227Z,36.63
2022-11-03T03:40:43.138Z,36.63
2022-11-03T03:42:14.916Z,36.55
2022-11-03T03:43:46.758Z,36.48
2022-11-03T03:45:18.766Z,36.66
2022-11-03T03:46:56.105Z,36.64
2022-11-03T03:48:27.689Z,36.44
2022-11-03T03:49:59.286Z,36.78
2022-11-03T03:51:30.809Z,36.84
2022-11-03T03:53:03.133Z,36.98
2022-11-03T03:54:34.703Z,36.87
2022-11-03T03:56:06.361Z,36.92
2022-11-03T03:57:37.916Z,37.04
2022-11-03T03:59:09.503Z,37.18
2022-11-03T04:00:41.436Z,37.34
2022-11-03T04:02:13.153Z,36.92
2022-11-03T04:03:44.787Z,36.95
2022-11-03T04:05:16.458Z,37.13
2022-11-03T04:06:48.285Z,37.46
2022-11-03T04:08:19.892Z,37.68
2022-11-03T04:09:51.481Z,37.45
2022-11-03T04:11:41.751Z,37.53
2022-11-03T04:13:31.880Z,37.92
2022-11-03T04:15:22.329Z,37.65
2022-11-03T04:17:12.608Z,37.76
2022-11-03T04:19:02.953Z,37.87
2022-11-03T04:20:53.380Z,37.79
2022-11-03T04:22:26.844Z,38.14
2022-11-03T04:24:00.421Z,38.12
2022-11-03T04:25:32.470Z,37.92
2022-11-03T04:27:30.205Z,37.86
2022-11-03T04:29:01.875Z,37.90
2022-11-03T04:30:33.627Z,37.74
2022-11-03T04:32:11.178Z,38.17
2022-11-03T04:33:42.976Z,37.63
2022-11-03T04:35:15.520Z,38.15
2022-11-03T04:36:50.178Z,37.93
2022-11-03T04:38:22.934Z,38.01
2022-11-03T04:40:02.734Z,38.16
2022-11-03T04:41:34.759Z,38.20
2022-11-03T04:43:10.540Z,38.38
2022-11-03T04:44:42.166Z,37.89
2022-11-03T04:46:16.499Z,38.00
2022-11-03T04:47:48.196Z,37.89
2022-11-03T04:49:22.906Z,38.03
2022-11-03T04:50:57.582Z,37.95
2022-11-03T04:52:29.260Z,38.05
2022-11-03T04:54:07.590Z,38.20
2022-11-03T04:55:42.026Z,38.69
2022-11-03T04:57:14.455Z,38.23
2022-11-03T04:58:48.383Z,38.45
2022-11-03T05:00:20.142Z,38.01
2022-11-03T05:01:51.863Z,38.15
2022-11-03T05:03:24.421Z,38.69
2022-11-03T05:04:56.117Z,38.66
2022-11-03T05:06:28.188Z,38.29
2022-11-03T05:07:59.723Z,38.55
2022-11-03T05:09:31.255Z,38.79
2022-11-03T05:11:05.558Z,38.35
2022-11-03T05:12:37.259Z,38.91
2022-11-03T05:14:20.871Z,38.82
2022-11-03T05:15:53.282Z,38.60
2022-11-03T05:17:28.150Z,38.43
2022-11-03T05:18:59.762Z,38.54
2022-11-03T05:20:36.011Z,38.22
2022-11-03T05:22:08.875Z,38.73
2022-11-03T05:23:41.160Z,38.59
2022-11-03T05:25:31.155Z,38.55
2022-11-03T05:27:02.741Z,38.69
2022-11-03T05:28:35.823Z,39.01
2022-11-03T05:30:12.973Z,38.64
2022-11-03T05:31:44.494Z,38.77
2022-11-03T05:33:18.883Z,38.87
2022-11-03T05:34:51.418Z,38.83
2022-11-03T05:36:23.945Z,38.73
2022-11-03T05:37:55.510Z,39.07
2022-11-03T05:39:27.135Z,38.66
2022-11-03T05:40:59.163Z,38.74
2022-11-03T05:42:34.383Z,38.58
2022-11-03T05:44:27.069Z,38.83
2022-11-03T05:45:58.984Z,39.15
2022-11-03T05:47:35.240Z,38.83
2022-11-03T05:49:06.920Z,39.02
2022-11-03T05:50:39.214Z,39.31
2022-11-03T05:52:14.193Z,39.14
2022-11-03T05:53:46.699Z,39.28
2022-11-03T05:55:22.983Z,39.27
2022-11-03T05:56:55.814Z,39.32
2022-11-03T05:58:37.172Z,39.38
2022-11-03T06:00:20.090Z,39.33
2022-11-03T06:01:52.047Z,39.27
2022-11-03T06:03:25.314Z,39.35
2022-11-03T06:04:56.921Z,39.46
2022-11-03T06:06:32.210Z,39.37
2022-11-03T06:08:06.890Z,39.28
2022-11-03T06:09:38.630Z,39.50
2022-11-03T06:11:10.512Z,39.47
2022-11-03T06:12:42.675Z,39.51
2022-11-03T06:14:24.683Z,39.39
2022-11-03T06:16:02.057Z,39.38
2022-11-03T06:17:34.249Z,39.16
2022-11-03T06:19:20.542Z,39.43
2022-11-03T06:20:53.440Z,39.15
2022-11-03T06:22:27.538Z,39.36
2022-11-03T06:23:59.094Z,39.35
2022-11-03T06:25:31.898Z,39.22
2022-11-03T06:27:04.112Z,39.41
2022-11-03T06:28:37.201Z,39.38
2022-11-03T06:30:28.810Z,39.03
2022-11-03T06:32:00.407Z,39.09
2022-11-03T06:33:35.176Z,39.26
2022-11-03T06:35:08.819Z,39.37
2022-11-03T06:36:40.492Z,39.28
2022-11-03T06:38:14.086Z,39.15
2022-11-03T06:39:46.012Z,39.33
2022-11-03T06:41:20.435Z,38.95
2022-11-03T06:42:52.644Z,39.33
2022-11-03T06:44:25.470Z,39.21
2022-11-03T06:46:00.224Z,39.02
2022-11-03T06:47:32.746Z,39.07
2022-11-03T06:49:19.842Z,38.81
2022-11-03T06:50:51.596Z,38.63
2022-11-03T06:52:30.120Z,39.08
2022-11-03T06:54:01.791Z,38.90
2022-11-03T06:55:33.528Z,39.01
2022-11-03T06:57:07.818Z,38.97
2022-11-03T06:58:39.504Z,38.67
2022-11-03T07:00:32.848Z,38.89
2022-11-03T07:02:05.956Z,38.89
2022-11-03T07:03:38.205Z,38.72
2022-11-03T07:05:16.576Z,38.66
2022-11-03T07:06:53.593Z,38.54
2022-11-03T07:08:30.292Z,38.64
2022-11-03T07:10:01.869Z,38.64
2022-11-03T07:11:52.980Z,38.41
2022-11-03T07:13:25.369Z,38.37
2022-11-03T07:14:59.100Z,38.20
2022-11-03T07:16:34.373Z,38.33
2022-11-03T07:18:13.417Z,38.17
2022-11-03T07:19:45.363Z,38.11
2022-11-03T07:21:23.503Z,38.19
2022-11-03T07:22:55.144Z,38.04
2022-11-03T07:24:30.244Z,37.98
2022-11-03T07:26:01.765Z,37.95
2022-11-03T07:27:35.533Z,38.00
2022-11-03T07:29:09.130Z,37.79
2022-11-03T07:30:40.686Z,37.96
2022-11-03T07:32:32.464Z,37.71
2022-11-03T07:34:05.728Z,37.68
2022-11-03T07:36:08.499Z,37.62
2022-11-03T07:37:29.633Z,37.46
2022-11-03T07:39:01.330Z,37.37
2022-11-03T07:40:34.206Z,37.44
2022-11-03T07:42:34.757Z,37.44
2022-11-03T07:44:08.602Z,37.28
2022-11-03T07:45:41.912Z,37.45
2022-11-03T07:47:18.636Z,37.40
2022-11-03T07:48:57.100Z,37.43
2022-11-03T07:50:28.747Z,37.46
2022-11-03T07:52:00.462Z,37.42
2022-11-03T07:53:36.044Z,37.50
2022-11-03T07:55:09.300Z,37.29
2022-11-03T07:56:45.392Z,37.21
2022-11-03T07:58:28.446Z,37.37
2022-11-03T08:00:11.025Z,37.25
2022-11-03T08:01:43.850Z,36.91
2022-11-03T08:03:22.048Z,37.22
2022-11-03T08:04:53.700Z,37.20
2022-11-03T08:06:25.356Z,37.16
2022-11-03T08:07:56.978Z,36.91
2022-11-03T08:09:28.512Z,36.77
2022-11-03T08:11:02.064Z,36.55
2022-11-03T08:12:33.827Z,36.50
2022-11-03T08:14:05.344Z,36.58
2022-11-03T08:15:37.029Z,36.43
2022-11-03T08:17:08.698Z,36.20
2022-11-03T08:18:40.370Z,36.36
2022-11-03T08:20:12.072Z,36.27
2022-11-03T08:21:43.791Z,36.16
2022-11-03T08:23:31.225Z,36.09
2022-11-03T08:25:03.211Z,35.99
2022-11-03T08:26:35.059Z,35.77
2022-11-03T08:28:06.663Z,35.66
2022-11-03T08:29:38.194Z,35.71
2022-11-03T08:31:13.044Z,35.61
2022-11-03T08:32:45.001Z,35.37
2022-11-03T08:34:16.702Z,35.50
2022-11-03T08:35:48.347Z,35.60
2022-11-03T08:37:20.002Z,35.50
2022-11-03T08:38:51.801Z,35.38
2022-11-03T08:40:23.405Z,35.43
2022-11-03T08:41:54.943Z,35.39
2022-11-03T08:43:26.671Z,35.05
2022-11-03T08:44:59.326Z,35.09
2022-11-03T08:46:30.906Z,35.22
2022-11-03T08:48:02.549Z,35.13
2022-11-03T08:49:34.225Z,34.91
2022-11-03T08:51:06.867Z,34.88
2022-11-03T08:52:38.542Z,35.02
2022-11-03T08:54:10.259Z,34.70
2022-11-03T08:55:41.854Z,34.79
2022-11-03T08:57:13.492Z,34.72
2022-11-03T08:58:45.322Z,34.53
2022-11-03T09:00:17.278Z,34.47
2022-11-03T09:01:49.000Z,34.46
2022-11-03T09:03:21.021Z,34.37
2022-11-03T09:04:52.604Z,34.30
2022-11-03T09:06:24.732Z,34.24
2022-11-03T09:11:40.323Z,34.10
2022-11-03T09:13:11.852Z,34.00
2022-11-03T09:14:43.439Z,33.96
2022-11-03T09:16:15.035Z,33.98
2022-11-03T09:17:46.590Z,33.98
2022-11-03T09:19:18.254Z,33.90
2022-11-03T09:20:50.392Z,33.81
2022-11-03T09:22:23.168Z,33.72
2022-11-03T09:23:54.981Z,33.84
2022-11-03T09:25:26.607Z,33.75
2022-11-03T09:27:02.121Z,33.70
2022-11-03T09:28:34.178Z,33.70
2022-11-03T09:30:13.376Z,33.75
2022-11-03T09:31:45.556Z,33.73
2022-11-03T09:33:17.229Z,33.62
2022-11-03T09:34:48.835Z,33.60
2022-11-03T09:36:20.557Z,33.56
2022-11-03T09:37:52.957Z,33.52
2022-11-03T09:39:25.052Z,33.44
2022-11-03T09:40:57.057Z,33.48
2022-11-03T09:42:28.595Z,33.59
2022-11-03T09:44:00.609Z,33.30
2022-11-03T09:45:32.830Z,33.08
2022-11-03T09:47:04.699Z,33.13
2022-11-03T09:48:36.395Z,33.14
2022-11-03T09:50:11.779Z,33.16
2022-11-03T09:51:43.627Z,32.93
2022-11-03T09:53:15.273Z,32.78
2022-11-03T09:54:46.984Z,32.81
2022-11-03T09:56:19.764Z,32.64
2022-11-03T09:58:01.009Z,32.50
2022-11-03T09:59:32.506Z,32.44
2022-11-03T10:01:04.395Z,32.28
2022-11-03T10:02:36.265Z,32.55
2022-11-03T10:04:08.689Z,32.58
2022-11-03T10:05:40.387Z,32.45
2022-11-03T10:07:11.908Z,32.41
2022-11-03T10:08:43.673Z,32.33
2022-11-03T10:10:15.766Z,32.22
2022-11-03T10:11:47.354Z,32.10
2022-11-03T10:13:23.800Z,31.76
2022-11-03T10:14:55.481Z,31.96
2022-11-03T10:16:27.070Z,32.05
2022-11-03T10:17:58.646Z,31.66
2022-11-03T10:19:32.476Z,31.44
2022-11-03T10:21:05.489Z,31.33
2022-11-03T10:22:40.878Z,31.23
2022-11-03T10:24:13.028Z,31.46
2022-11-03T10:25:44.993Z,31.13
2022-11-03T10:27:23.178Z,30.92
2022-11-03T10:29:11.861Z,30.90
2022-11-03T10:31:10.192Z,30.86
2022-11-03T10:32:41.666Z,30.77
2022-11-03T10:34:32.063Z,30.57
2022-11-03T10:36:15.907Z,30.59
2022-11-03T10:37:47.426Z,30.45
2022-11-03T10:39:29.009Z,30.11
2022-11-03T10:41:11.129Z,30.21
2022-11-03T10:42:43.035Z,30.10
2022-11-03T10:44:14.711Z,30.13
2022-11-03T10:45:46.405Z,30.24
2022-11-03T10:47:24.425Z,29.97
2022-11-03T10:50:42.874Z,29.79
2022-11-03T10:52:20.724Z,29.58
2022-11-03T10:53:52.382Z,29.55
2022-11-03T10:55:25.986Z,29.68
2022-11-03T10:56:58.390Z,29.34
2022-11-03T10:58:30.375Z,29.25
2022-11-03T11:00:02.372Z,29.03
2022-11-03T11:01:34.095Z,28.96
2022-11-03T11:03:06.480Z,28.98
2022-11-03T11:04:38.757Z,28.59
2022-11-03T11:06:27.006Z,28.65
2022-11-03T11:07:58.931Z,28.69
2022-11-03T11:09:30.562Z,28.96
2022-11-03T11:11:06.469Z,28.67
2022-11-03T11:12:38.306Z,28.67
2022-11-03T11:14:28.442Z,28.46
2022-11-03T11:16:00.608Z,28.33
2022-11-03T11:17:38.423Z,28.31
2022-11-03T11:19:10.135Z,28.07
2022-11-03T11:20:41.697Z,28.02
2022-11-03T11:22:14.132Z,28.05
2022-11-03T11:23:46.165Z,27.79
2022-11-03T11:25:18.099Z,27.77
2022-11-03T11:26:50.931Z,27.75
2022-11-03T11:28:22.685Z,27.73
2022-11-03T11:29:54.341Z,27.67
2022-11-03T11:31:32.611Z,27.77
2022-11-03T11:33:14.243Z,27.53
2022-11-03T11:34:45.818Z,27.24
2022-11-03T11:36:24.247Z,27.44
2022-11-03T11:37:55.943Z,27.19
2022-11-03T11:39:27.828Z,26.97
2022-11-03T11:40:59.534Z,27.02
2022-11-03T11:42:32.607Z,26.69
2022-11-03T11:44:26.778Z,26.68
2022-11-03T11:46:17.438Z,26.83
2022-11-03T11:47:49.594Z,26.66
2022-11-03T11:49:21.265Z,26.61
2022-11-03T11:50:52.847Z,26.30
2022-11-03T11:52:24.469Z,26.50
2022-11-03T11:54:16.515Z,26.25
2022-11-03T11:55:49.276Z,26.42
2022-11-03T11:57:21.652Z,26.42
2022-11-03T11:58:56.541Z,26.12
2022-11-03T12:00:29.576Z,26.08
2022-11-03T12:02:01.232Z,25.83
2022-11-03T12:03:34.429Z,25.89
2022-11-03T12:05:07.946Z,25.65
2022-11-03T12:06:40.174Z,25.79
2022-11-03T12:08:18.825Z,25.64
2022-11-03T12:09:50.649Z,25.64
2022-11-03T12:11:45.451Z,25.26
2022-11-03T12:13:38.104Z,25.34
2022-11-03T12:15:28.286Z,25.26
2022-11-03T12:17:19.874Z,25.53
2022-11-03T12:18:51.538Z,25.24
2022-11-03T12:20:36.207Z,24.91
2022-11-03T12:22:29.758Z,25.23
2022-11-03T12:24:01.383Z,24.68
2022-11-03T12:25:33.732Z,24.96
2022-11-03T12:27:21.299Z,25.02
2022-11-03T12:28:53.433Z,24.64
2022-11-03T12:30:24.972Z,24.62
2022-11-03T12:31:56.606Z,24.84
2022-11-03T12:33:28.498Z,24.52
2022-11-03T12:35:00.365Z,24.46
2022-11-03T12:36:32.434Z,24.16
2022-11-03T12:38:04.293Z,24.16
2022-11-03T12:39:35.943Z,24.03
2022-11-03T12:41:22.781Z,24.28
2022-11-03T12:42:54.327Z,24.11
2022-11-03T12:44:26.068Z,24.06
2022-11-03T12:45:57.757Z,23.65
2022-11-03T12:47:29.342Z,23.66
2022-11-03T12:49:00.962Z,23.84
2022-11-03T12:50:32.722Z,23.46
2022-11-03T12:52:08.300Z,23.58
2022-11-03T12:53:41.065Z,23.41
2022-11-03T12:55:12.878Z,23.57
2022-11-03T12:56:44.750Z,23.49
2022-11-03T12:58:16.266Z,23.79
2022-11-03T12:59:47.956Z,23.13
2022-11-03T13:01:19.788Z,23.22
2022-11-03T13:02:52.031Z,22.90
2022-11-03T13:04:23.738Z,22.90
2022-11-03T13:05:56.347Z,23.18
2022-11-03T13:07:33.479Z,22.93
2022-11-03T13:09:06.321Z,23.26
2022-11-03T13:10:38.020Z,22.99
2022-11-03T13:12:30.384Z,22.57
2022-11-03T13:14:02.014Z,22.53
2022-11-03T13:15:33.608Z,22.68
2022-11-03T13:17:05.298Z,22.57
2022-11-03T13:18:36.993Z,22.50
2022-11-03T13:21:45.648Z,23.02
2022-11-03T13:23:20.336Z,23.07
2022-11-03T13:24:54.617Z,22.94
2022-11-03T13:26:26.154Z,22.88
2022-11-03T13:27:57.994Z,22.75
2022-11-03T13:29:34.140Z,22.63
2022-11-03T13:31:07.076Z,22.84
2022-11-03T13:32:38.687Z,22.84
2022-11-03T13:34:10.336Z,22.31
2022-11-03T13:35:42.162Z,22.56
2022-11-03T13:37:13.842Z,22.59
2022-11-03T13:38:45.549Z,22.67
2022-11-03T13:42:09.210Z,22.28
2022-11-03T13:43:40.761Z,22.33
2022-11-03T13:45:13.115Z,22.56
2022-11-03T13:46:44.663Z,22.19
2022-11-03T13:49:21.519Z,22.51
2022-11-03T13:50:15.203Z,22.38
2022-11-03T13:51:47.141Z,22.53
2022-11-03T14:00:47.318Z,22.37
2022-11-03T14:06:02.117Z,22.03
2022-11-03T14:07:33.721Z,22.04
2022-11-03T14:09:05.298Z,22.09
2022-11-03T14:10:36.856Z,22.23
2022-11-03T14:12:27.128Z,22.13
2022-11-03T14:13:58.738Z,22.39
2022-11-03T14:15:30.439Z,22.38
2022-11-03T14:17:02.110Z,22.43
2022-11-03T14:18:33.891Z,22.19
2022-11-03T14:20:05.742Z,22.40
2022-11-03T14:21:42.913Z,22.40
2022-11-03T14:23:14.480Z,22.22
2022-11-03T14:24:46.075Z,22.36
2022-11-03T14:26:33.013Z,22.35
2022-11-03T14:28:09.373Z,22.41
2022-11-03T14:29:41.200Z,22.39
2022-11-03T14:31:12.921Z,22.52
2022-11-03T14:32:44.592Z,22.51
2022-11-03T14:34:16.229Z,22.66
2022-11-03T14:35:49.330Z,22.80
2022-11-03T14:37:20.976Z,22.80
2022-11-03T14:38:52.701Z,22.98
2022-11-03T14:40:42.819Z,23.01
2022-11-03T14:42:17.379Z,22.82
2022-11-03T14:43:49.570Z,22.98
2022-11-03T14:45:21.666Z,23.03
2022-11-03T14:46:53.874Z,22.86
2022-11-03T14:48:25.398Z,23.17
2022-11-03T14:49:57.003Z,23.39
2022-11-03T14:51:29.162Z,23.57
2022-11-03T14:53:00.717Z,23.49
2022-11-03T14:54:32.301Z,23.34
2022-11-03T14:56:04.187Z,23.71
2022-11-03T14:57:35.823Z,23.67
2022-11-03T14:59:07.514Z,24.02
2022-11-03T15:00:39.083Z,24.03
2022-11-03T15:02:10.737Z,24.02
2022-11-03T15:03:42.647Z,24.34
2022-11-03T15:05:34.252Z,24.30
2022-11-03T15:07:06.596Z,24.29
2022-11-03T15:08:38.350Z,24.05
2022-11-03T15:10:10.051Z,24.23
2022-11-03T15:11:42.023Z,24.57
2022-11-03T15:13:13.771Z,24.49
2022-11-03T15:14:45.516Z,24.36
2022-11-03T15:16:17.117Z,24.53
2022-11-03T15:17:48.765Z,24.82
2022-11-03T15:19:20.357Z,24.68
2022-11-03T15:20:52.091Z,24.71
2022-11-03T15:26:08.024Z,25.09
2022-11-03T15:27:39.566Z,25.23
2022-11-03T15:29:11.175Z,25.06
2022-11-03T15:30:42.749Z,25.24
2022-11-03T15:32:15.419Z,25.19
2022-11-03T15:33:46.995Z,25.20
2022-11-03T15:35:18.703Z,25.41
2022-11-03T15:36:50.643Z,25.31
2022-11-03T15:38:22.240Z,25.39
2022-11-03T15:39:58.736Z,25.45
2022-11-03T15:41:31.700Z,25.53
2022-11-03T15:43:03.402Z,25.40
2022-11-03T15:44:35.273Z,25.67
2022-11-03T15:46:06.864Z,25.82
2022-11-03T15:47:39.426Z,25.92
2022-11-03T15:49:11.323Z,26.00
2022-11-03T15:50:43.188Z,26.02
2022-11-03T15:52:14.773Z,26.10
2022-11-03T15:53:46.902Z,26.17
2022-11-03T15:55:19.395Z,26.26
2022-11-03T15:56:50.955Z,26.33
2022-11-03T15:58:22.595Z,26.40
2022-11-03T15:59:57.737Z,26.52
2022-11-03T16:01:29.905Z,26.48
2022-11-03T16:03:02.252Z,26.67
2022-11-03T16:04:34.144Z,26.54
2022-11-03T16:06:05.871Z,26.36
2022-11-03T16:07:37.435Z,26.40
2022-11-03T16:09:09.696Z,26.32
2022-11-03T16:10:48.056Z,26.33
2022-11-03T16:12:24.378Z,26.48
2022-11-03T16:13:56.315Z,26.53
2022-11-03T16:15:27.834Z,26.63
2022-11-03T16:16:59.942Z,26.69
2022-11-03T16:18:31.533Z,26.83
2022-11-03T16:20:03.145Z,26.96
2022-11-03T16:21:35.281Z,27.08
2022-11-03T16:23:06.876Z,27.28
2022-11-03T16:24:38.632Z,27.25
2022-11-03T16:26:10.232Z,27.27
2022-11-03T16:27:42.100Z,27.33
2022-11-03T16:29:13.662Z,27.38
2022-11-03T16:30:49.826Z,27.56
2022-11-03T16:32:25.679Z,27.71
2022-11-03T16:33:58.566Z,27.72
2022-11-03T16:35:30.431Z,27.72
2022-11-03T16:37:02.023Z,27.93
2022-11-03T16:38:33.672Z,27.92
2022-11-03T16:40:06.007Z,28.09
2022-11-03T16:41:37.899Z,28.08
2022-11-03T16:43:09.732Z,28.11
2022-11-03T16:44:41.370Z,28.01
2022-11-03T16:46:13.796Z,28.24
2022-11-03T16:47:46.170Z,28.03
2022-11-03T16:49:18.072Z,28.38
2022-11-03T16:50:52.853Z,28.30
2022-11-03T16:52:27.387Z,28.49
2022-11-03T16:54:00.028Z,28.20
2022-11-03T16:55:31.961Z,28.49
2022-11-03T16:57:03.897Z,28.52
2022-11-03T16:58:35.967Z,28.53
2022-11-03T17:00:09.122Z,28.70
2022-11-03T17:01:41.516Z,28.46
2022-11-03T17:03:13.894Z,28.50
2022-11-03T17:04:46.012Z,28.50
2022-11-03T17:06:18.125Z,28.72
2022-11-03T17:07:53.620Z,28.93
2022-11-03T17:09:27.191Z,28.67
2022-11-03T17:10:59.336Z,28.87
2022-11-03T17:12:31.405Z,28.95
2022-11-03T17:14:04.201Z,29.07
2022-11-03T17:15:36.211Z,29.02
2022-11-03T17:17:08.435Z,29.00
2022-11-03T17:18:40.571Z,28.77
2022-11-03T17:20:13.310Z,29.09
2022-11-03T17:21:45.382Z,28.97
2022-11-03T17:23:17.109Z,29.08
2022-11-03T17:24:48.975Z,29.17
2022-11-03T17:26:22.218Z,29.41
2022-11-03T17:27:57.783Z,29.09
2022-11-03T17:29:32.329Z,29.19
2022-11-03T17:31:05.005Z,29.31
2022-11-03T17:32:37.642Z,29.34
2022-11-03T17:34:12.508Z,29.57
2022-11-03T17:35:45.906Z,29.40
2022-11-03T17:37:17.677Z,29.48
2022-11-03T17:38:49.858Z,29.64
2022-11-03T17:40:22.147Z,29.68
2022-11-03T17:41:54.182Z,29.73
2022-11-03T17:43:28.551Z,29.80
2022-11-03T17:45:01.180Z,29.82
2022-11-03T17:46:32.990Z,29.98
2022-11-03T17:48:06.180Z,29.81
2022-11-03T17:49:38.262Z,29.82
2022-11-03T17:51:12.435Z,29.96
2022-11-03T17:52:46.283Z,30.04
2022-11-03T17:54:18.377Z,29.89
2022-11-03T17:56:08.914Z,29.97
2022-11-03T17:57:42.326Z,30.18
2022-11-03T17:59:14.841Z,30.12
2022-11-03T18:00:46.418Z,30.20
2022-11-03T18:02:19.575Z,30.38
2022-11-03T18:03:52.310Z,30.24
2022-11-03T18:05:24.113Z,30.20
2022-11-03T18:06:55.775Z,30.27
2022-11-03T18:08:28.022Z,30.29
2022-11-03T18:09:59.803Z,30.33
2022-11-03T18:11:50.062Z,30.43
2022-11-03T18:13:23.181Z,30.58
2022-11-03T18:14:55.337Z,30.43
2022-11-03T18:16:26.820Z,30.67
2022-11-03T18:17:58.465Z,30.52
2022-11-03T18:19:30.262Z,30.58
2022-11-03T18:21:02.065Z,30.71
2022-11-03T18:22:33.822Z,30.65
2022-11-03T18:24:18.380Z,30.77
2022-11-03T18:25:50.722Z,30.71
2022-11-03T18:27:25.379Z,30.89
2022-11-03T18:28:57.847Z,30.86
2022-11-03T18:30:30.919Z,30.80
2022-11-03T18:32:03.978Z,30.91
2022-11-03T18:33:36.258Z,30.89
2022-11-03T18:35:10.795Z,30.82
2022-11-03T18:36:42.510Z,31.01
2022-11-03T18:38:14.873Z,30.93
2022-11-03T18:39:46.654Z,30.83
2022-11-03T18:41:39.291Z,30.94
2022-11-03T18:43:14.529Z,30.78
2022-11-03T18:44:46.854Z,30.86
2022-11-03T18:46:18.565Z,30.91
2022-11-03T18:47:50.247Z,30.69
2022-11-03T18:49:22.614Z,30.77
2022-11-03T18:50:55.741Z,30.69
2022-11-03T18:52:28.044Z,30.61
2022-11-03T18:53:59.974Z,30.60
2022-11-03T18:55:32.111Z,30.69
2022-11-03T18:57:04.399Z,30.79
2022-11-03T18:58:36.508Z,30.83
2022-11-03T19:00:15.583Z,30.90
2022-11-03T19:01:47.999Z,31.10
2022-11-03T19:03:20.635Z,31.10
2022-11-03T19:04:52.736Z,31.41
2022-11-03T19:06:24.611Z,31.43
2022-11-03T19:07:56.216Z,31.59
2022-11-03T19:09:28.283Z,31.57
2022-11-03T19:11:03.900Z,31.73
2022-11-03T19:12:38.981Z,31.72
2022-11-03T19:14:13.280Z,31.64
2022-11-03T19:15:45.017Z,31.82
2022-11-03T19:17:23.049Z,31.79
2022-11-03T19:18:55.501Z,31.84
2022-11-03T19:20:27.173Z,31.75
2022-11-03T19:21:58.816Z,31.99
2022-11-03T19:23:31.260Z,31.80
2022-11-03T19:25:02.907Z,31.86
2022-11-03T19:26:43.964Z,31.89
2022-11-03T19:28:16.930Z,31.87
2022-11-03T19:29:48.671Z,31.94
2022-11-03T19:31:38.702Z,31.98
2022-11-03T19:33:17.027Z,31.95
2022-11-03T19:34:49.444Z,32.05
2022-11-03T19:36:21.089Z,31.86
2022-11-03T19:38:00.203Z,32.08
2022-11-03T19:39:33.165Z,31.92
2022-11-03T19:41:23.312Z,32.15
2022-11-03T19:42:55.563Z,32.20
2022-11-03T19:44:27.414Z,32.17
2022-11-03T19:45:59.588Z,32.03
2022-11-03T19:47:35.104Z,32.34
2022-11-03T19:49:06.887Z,32.25
2022-11-03T19:50:38.485Z,32.16
2022-11-03T19:52:11.562Z,32.32
2022-11-03T19:53:47.135Z,32.14
2022-11-03T19:55:19.937Z,32.30
2022-11-03T19:56:52.353Z,32.23
2022-11-03T19:58:27.679Z,32.35
2022-11-03T19:59:59.628Z,32.18
2022-11-03T20:01:31.467Z,32.17
2022-11-03T20:03:03.460Z,32.11
2022-11-03T20:04:35.149Z,32.14
2022-11-03T20:06:07.003Z,32.08
2022-11-03T20:07:39.027Z,31.89
2022-11-03T20:09:12.571Z,32.00
2022-11-03T20:10:48.198Z,32.02
2022-11-03T20:12:20.098Z,32.12
2022-11-03T20:13:52.250Z,31.82
2022-11-03T20:15:23.981Z,31.88
2022-11-03T20:16:59.180Z,31.85
2022-11-03T20:18:30.895Z,31.89
2022-11-03T20:20:02.811Z,31.88
2022-11-03T20:21:34.915Z,31.92
2022-11-03T20:23:08.222Z,31.92
2022-11-03T20:24:40.056Z,31.89
2022-11-03T20:26:15.579Z,32.07
2022-11-03T20:27:47.271Z,31.93
2022-11-03T20:29:19.045Z,32.14
2022-11-03T20:30:51.112Z,32.10
2022-11-03T20:32:23.537Z,32.13
2022-11-03T20:33:55.380Z,32.05
2022-11-03T20:35:27.617Z,32.04
2022-11-03T20:37:04.406Z,32.04